createdAt,value
2022-11-27T00:00:28.955Z,6.69
2022-11-27T00:05:39.320Z,6.75
2022-11-27T00:10:49.076Z,6.75
2022-11-27T00:15:59.612Z,6.69
2022-11-27T00:21:09.235Z,6.56
2022-11-27T00:26:17.079Z,6.38
2022-11-27T00:31:25.038Z,6.56
2022-11-27T00:36:35.317Z,6.5
2022-11-27T00:41:45.077Z,6.38
2022-11-27T00:46:53.706Z,6.38
2022-11-27T00:52:01.426Z,6.38
2022-11-27T00:57:10.518Z,6.25
2022-11-27T01:02:22.284Z,6.19
2022-11-27T01:07:31.396Z,6.12
2022-11-27T01:12:40.466Z,6.12
2022-11-27T01:17:48.949Z,6.12
2022-11-27T01:22:58.069Z,6.12
2022-11-27T01:28:07.185Z,6.12
2022-11-27T01:33:17.147Z,6.06
2022-11-27T01:38:33.958Z,6
2022-11-27T01:43:51.239Z,5.88
2022-11-27T01:49:08.673Z,5.94
2022-11-27T01:54:24.844Z,5.88
2022-11-27T01:59:42.276Z,6
2022-11-27T02:04:09.821Z,5.94
2022-11-27T02:09:17.555Z,5.81
2022-11-27T02:14:26.673Z,5.94
2022-11-27T02:19:36.435Z,6.06
2022-11-27T02:24:45.555Z,5.94
2022-11-27T02:29:54.068Z,5.88
2022-11-27T02:35:03.797Z,5.75
2022-11-27T02:40:13.598Z,5.88
2022-11-27T02:45:22.677Z,5.75
2022-11-27T02:50:31.799Z,5.88
2022-11-27T02:55:40.312Z,5.81
2022-11-27T03:00:49.404Z,5.94
2022-11-27T03:05:58.517Z,6.06
2022-11-27T03:11:07.027Z,6.06
2022-11-27T03:16:22.695Z,6.12
2022-11-27T03:21:38.762Z,6.12
2022-11-27T03:26:53.678Z,6.12
2022-11-27T03:32:08.619Z,6.12
2022-11-27T03:37:24.060Z,5.81
2022-11-27T03:42:40.260Z,5.81
2022-11-27T03:47:55.199Z,5.81
2022-11-27T03:52:22.543Z,5.88
2022-11-27T03:57:30.998Z,6.06
2022-11-27T04:02:38.871Z,5.94
2022-11-27T04:07:47.989Z,5.94
2022-11-27T04:12:57.076Z,6.06
2022-11-27T04:18:06.230Z,6.25
2022-11-27T04:23:15.959Z,6.44
2022-11-27T04:28:25.752Z,6.5
2022-11-27T04:33:35.483Z,6.56
2022-11-27T04:38:45.274Z,6.56
2022-11-27T04:43:54.356Z,6.62
2022-11-27T04:49:03.478Z,6.62
2022-11-27T04:54:12.588Z,6.75
2022-11-27T04:59:21.076Z,6.62
2022-11-27T05:04:30.869Z,6.56
2022-11-27T05:09:39.324Z,6.56
2022-11-27T05:14:47.797Z,6.69
2022-11-27T05:19:57.554Z,6.56
2022-11-27T05:25:07.316Z,6.56
2022-11-27T05:30:16.465Z,6.44
2022-11-27T05:35:26.198Z,6.81
2022-11-27T05:40:36.602Z,6.62
2022-11-27T05:45:46.355Z,6.5
2022-11-27T05:50:55.484Z,6.62
2022-11-27T05:56:04.588Z,6.75
2022-11-27T06:01:14.479Z,7
2022-11-27T06:06:24.785Z,6.81
2022-11-27T06:11:40.957Z,6.88
2022-11-27T06:16:51.686Z,7
2022-11-27T06:22:08.441Z,7
2022-11-27T06:27:24.950Z,7.06
2022-11-27T06:32:38.878Z,7.25
2022-11-27T06:37:55.540Z,7.25
2022-11-27T06:43:12.208Z,7.31
2022-11-27T06:47:40.324Z,7.31
2022-11-27T06:52:50.206Z,7.25
2022-11-27T06:57:59.213Z,7.44
2022-11-27T07:03:08.307Z,7.44
2022-11-27T07:08:18.037Z,7.44
2022-11-27T07:13:27.166Z,7.38
2022-11-27T07:18:36.924Z,7.44
2022-11-27T07:23:45.398Z,7.62
2022-11-27T07:28:53.887Z,7.62
2022-11-27T07:34:09.913Z,7.56
2022-11-27T07:39:34.040Z,7.75
2022-11-27T07:44:36.077Z,7.94
2022-11-27T07:49:50.316Z,7.88
2022-11-27T07:55:05.206Z,8.06
2022-11-27T08:00:22.014Z,8.19
2022-11-27T08:05:36.307Z,8.12
2022-11-27T08:10:06.838Z,8.38
2022-11-27T08:15:17.233Z,8.31
2022-11-27T08:20:26.358Z,8.31
2022-11-27T08:25:35.478Z,8.5
2022-11-27T08:30:45.236Z,8.69
2022-11-27T08:35:53.746Z,8.44
2022-11-27T08:41:02.836Z,8.44
2022-11-27T08:46:12.725Z,9.06
2022-11-27T08:51:21.719Z,8.88
2022-11-27T08:56:31.557Z,8.81
2022-11-27T09:01:40.604Z,9.12
2022-11-27T09:06:52.890Z,9.44
2022-11-27T09:11:57.558Z,9.5
2022-11-27T09:17:06.037Z,9.5
2022-11-27T09:22:15.152Z,9.75
2022-11-27T09:27:24.282Z,9.75
2022-11-27T09:32:32.761Z,9.44
2022-11-27T09:37:43.161Z,9.81
2022-11-27T09:42:52.949Z,9.81
2022-11-27T09:48:02.681Z,9.69
2022-11-27T09:53:15.274Z,9.81
2022-11-27T09:58:31.399Z,9.88
2022-11-27T10:03:49.042Z,9.69
2022-11-27T10:09:04.905Z,9.44
2022-11-27T10:14:21.156Z,9.81
2022-11-27T10:19:39.423Z,9.81
2022-11-27T10:24:10.365Z,10.19
2022-11-27T10:29:18.228Z,10
2022-11-27T10:34:27.317Z,10.19
2022-11-27T10:39:36.438Z,10
2022-11-27T10:44:46.196Z,10.25
2022-11-27T10:49:55.957Z,10.12
2022-11-27T10:55:05.059Z,10.06
2022-11-27T11:00:14.281Z,10.31
2022-11-27T11:05:57.203Z,10.44
2022-11-27T11:10:32.437Z,10.62
2022-11-27T11:15:40.915Z,10.5
2022-11-27T11:20:50.709Z,10.75
2022-11-27T11:26:00.447Z,10.56
2022-11-27T11:31:09.557Z,10.75
2022-11-27T11:36:19.316Z,10.56
2022-11-27T11:41:28.435Z,10.56
2022-11-27T11:46:37.564Z,10.75
2022-11-27T11:51:47.955Z,10.88
2022-11-27T11:56:57.076Z,10.81
2022-11-27T12:02:07.616Z,11.12
2022-11-27T12:07:16.643Z,11.19
2022-11-27T12:12:26.355Z,10.88
2022-11-27T12:17:35.507Z,10.88
2022-11-27T12:22:45.874Z,11.12
2022-11-27T12:26:22.271Z,11.19
2022-11-27T12:27:12.277Z,11.19
2022-11-27T12:31:40.447Z,11.19
2022-11-27T12:32:30.418Z,11.19
2022-11-27T12:36:56.682Z,11.5
2022-11-27T12:37:46.689Z,11.5
2022-11-27T12:42:19.100Z,11.19
2022-11-27T12:43:02.041Z,11.19
2022-11-27T12:47:49.888Z,11.38
2022-11-27T12:48:19.797Z,11.38
2022-11-27T12:53:11.284Z,11.38
2022-11-27T12:53:35.876Z,11.38
2022-11-27T12:58:30.519Z,11.19
2022-11-27T12:59:44.355Z,11.19
2022-11-27T13:03:50.631Z,11
2022-11-27T13:11:41.588Z,10.81
2022-11-27T13:12:23.808Z,10.81
2022-11-27T13:17:24.628Z,10.94
2022-11-27T13:24:34.708Z,10.94
2022-11-27T13:30:35.322Z,10.88
2022-11-27T13:36:41.312Z,10.94
2022-11-27T13:38:37.403Z,10.94
2022-11-27T13:43:46.046Z,10.88
2022-11-27T13:43:55.240Z,10.88
2022-11-27T13:49:02.841Z,11
2022-11-27T13:49:23.543Z,11
2022-11-27T13:54:27.611Z,10.94
2022-11-27T13:54:50.197Z,10.94
2022-11-27T13:59:59.507Z,10.88
2022-11-27T14:00:09.999Z,10.88
2022-11-27T14:05:17.558Z,10.69
2022-11-27T14:05:27.061Z,10.69
2022-11-27T14:10:35.001Z,10.88
2022-11-27T14:10:44.194Z,10.88
2022-11-27T14:15:51.887Z,10.88
2022-11-27T14:19:15.082Z,10.88
2022-11-27T14:24:23.828Z,10.88
2022-11-27T14:25:53.645Z,10.88
2022-11-27T14:31:01.242Z,10.88
2022-11-27T14:31:10.655Z,10.88
2022-11-27T14:36:18.039Z,10.88
2022-11-27T14:36:27.237Z,10.88
2022-11-27T14:41:34.839Z,10.81
2022-11-27T14:43:38.528Z,10.81
2022-11-27T14:48:07.186Z,10.75
2022-11-27T14:56:23.156Z,10.5
2022-11-27T15:03:39.739Z,10.25
2022-11-27T15:09:32.884Z,10.25
2022-11-27T15:14:22.196Z,10.56
2022-11-27T15:16:52.260Z,10.56
2022-11-27T15:20:37.915Z,10.44
2022-11-27T15:22:15.724Z,10.44
2022-11-27T15:25:54.749Z,10.38
2022-11-27T15:27:34.756Z,10.38
2022-11-27T15:31:13.484Z,10.38
2022-11-27T15:41:47.068Z,10
2022-11-27T15:54:02.767Z,9.88
2022-11-27T15:54:52.768Z,9.88
2022-11-27T16:05:58.286Z,9.75
2022-11-27T16:11:01.879Z,9.5
2022-11-27T16:11:23.146Z,9.5
2022-11-27T16:16:25.305Z,9.5
2022-11-27T16:20:26.756Z,9.5
2022-11-27T16:25:44.413Z,9.44
2022-11-27T16:34:40.543Z,9.44
2022-11-27T16:39:57.806Z,9.38
2022-11-27T16:40:47.794Z,9.38
2022-11-27T16:45:13.323Z,9.38
2022-11-27T16:57:27.509Z,9.38
2022-11-27T17:02:58.673Z,9.44
2022-11-27T17:04:06.935Z,9.44
2022-11-27T17:09:16.920Z,9.38
2022-11-27T17:09:54.062Z,9.38
2022-11-27T17:14:54.838Z,9.31
2022-11-27T17:31:51.345Z,9.25
2022-11-27T17:39:41.543Z,9.25
2022-11-27T17:44:58.597Z,9.25
2022-11-27T17:50:16.869Z,9.25
2022-11-27T17:56:19.569Z,9.25
2022-11-27T18:01:29.823Z,9.31
2022-11-27T18:01:41.181Z,9.31
2022-11-27T18:06:48.438Z,9.19
2022-11-27T18:07:02.919Z,9.19
2022-11-27T18:12:05.878Z,9.25
2022-11-27T18:23:10.835Z,9.25
2022-11-27T18:40:25.073Z,9.31
2022-11-27T18:53:34.193Z,9.25
2022-11-27T18:59:13.406Z,9.38
2022-11-27T19:04:23.157Z,9.12
2022-11-27T19:09:32.898Z,9.38
2022-11-27T19:14:41.340Z,9.38
2022-11-27T19:19:55.055Z,9.31
2022-11-27T19:25:22.683Z,9.19
2022-11-27T19:30:34.264Z,9.19
2022-11-27T19:35:41.596Z,9.12
2022-11-27T19:40:56.699Z,9
2022-11-27T19:46:13.596Z,9
2022-11-27T20:02:00.143Z,9.06
2022-11-27T20:12:31.095Z,9.12
2022-11-27T20:33:35.105Z,9.19
2022-11-27T20:38:50.618Z,8.81
2022-11-27T20:44:06.137Z,8.88
2022-11-27T20:49:21.075Z,8.88
2022-11-27T20:54:36.540Z,9.06
2022-11-27T20:59:52.700Z,8.88
2022-11-27T21:05:08.321Z,9.06
2022-11-27T21:09:33.756Z,9
2022-11-27T21:14:00.544Z,9.19
2022-11-27T21:19:16.691Z,9
2022-11-27T21:24:32.890Z,9.19
2022-11-27T21:29:02.193Z,9
2022-11-27T21:34:10.043Z,8.94
2022-11-27T21:39:19.154Z,8.94
2022-11-27T21:44:28.914Z,8.94
2022-11-27T21:49:38.676Z,9.25
2022-11-27T21:54:47.795Z,9.25
2022-11-27T21:59:56.915Z,9.31
2022-11-27T22:05:05.398Z,9.38
2022-11-27T22:10:13.908Z,9.25
2022-11-27T22:15:23.636Z,9.38
2022-11-27T22:20:32.118Z,9.38
2022-11-27T22:25:41.875Z,9.31
2022-11-27T22:30:51.673Z,9.38
2022-11-27T22:36:00.760Z,9.38
2022-11-27T22:41:10.516Z,9.25
2022-11-27T22:46:19.147Z,9.31
2022-11-27T22:51:28.760Z,9.25
2022-11-27T22:56:37.236Z,9.31
2022-11-27T23:01:47.004Z,9.38
2022-11-27T23:06:55.480Z,9.31
2022-11-27T23:12:04.595Z,9.19
2022-11-27T23:17:13.114Z,9
2022-11-27T23:22:21.557Z,9.06
2022-11-27T23:27:31.958Z,9.06
2022-11-27T23:32:39.824Z,9.12
2022-11-27T23:37:48.275Z,9.25
2022-11-27T23:42:56.113Z,9
2022-11-27T23:48:05.518Z,9.31
2022-11-27T23:53:21.649Z,9.25
